Terminal Aerodrome Forecast
Issued by NWS

Home | Current Version | Previous Version | Text Only | Print | Product List | Glossary On
Versions: 1 2 3 4 5 6 7 8 9 10 11 12 13 14 15 16 17 18 19 20 21 22 23 24 25 26 27 28 29 30 31
197
FTUS46 KLOX 110126 AAB
TAFLAX
TAF AMD
KLAX 110126Z 1101/1206 26006KT 4SM BR SCT006 OVC012
      TEMPO 1101/1103 2SM -DZ BR BKN006 OVC012
     FM110700 VRB03KT 2SM -DZ BR VCSH BKN006 OVC012
     FM111500 25005KT 4SM BR SCT006 OVC012
     FM112000 25008KT 6SM BR SCT012 BKN025
     FM120400 25005KT 4SM BR SCT006 OVC012=

USA.gov is the U.S. government's official web portal to all federal, state and local government web resources and services.